ADDS METAR Data INFO
IDs: Format: Raw Decoded Include TAF

Data at: 0632 UTC 27 Mar 2017

METAR for:KIAH (Houston/Bush Intl, TX, US)
Text:KIAH 270553Z 22004KT 10SM BKN018 BKN250 23/19 A2991 RMK AO2 SLP129 T02280194 10250 20222 403000161 51022 $
Temperature: 22.8°C ( 73°F)
Dewpoint: 19.4°C ( 67°F) [RH = 81%]
Pressure (altimeter):29.91 inches Hg (1013.0 mb) [Sea level pressure: 1012.9 mb]
Winds:from the SW (220 degrees) at 5 MPH (4 knots; 2.1 m/s)
Visibility:10 or more sm (16+ km)
Ceiling:1800 feet AGL
Clouds: broken clouds at 1800 feet AGL, broken clouds at 25000 feet AGL
QC Flag:SOME DATA ABOVE MAY BE INACCURATE!!!"$" is an indication the sensor requires maintenance.

METAR for:KHOU (Houston/Hobby Arpt, TX, US)
Text:KHOU 270553Z 15005KT 10SM BKN016 BKN029 22/20 A2988 RMK AO2 SLP124 T02170200 10239 20217 402830194 50007
Temperature: 21.7°C ( 71°F)
Dewpoint: 20.0°C ( 68°F) [RH = 90%]
Pressure (altimeter):29.88 inches Hg (1011.9 mb) [Sea level pressure: 1012.4 mb]
Winds:from the SSE (150 degrees) at 6 MPH (5 knots; 2.6 m/s)
Visibility:10 or more sm (16+ km)
Ceiling:1600 feet AGL
Clouds: broken clouds at 1600 feet AGL, broken clouds at 2900 feet AGL

METAR for:KGLS (Galveston/Scholes In, TX, US)
Text:KGLS 270626Z AUTO 15009KT 8SM SCT023 23/22 A2989 RMK AO2 T02280217
Temperature: 22.8°C ( 73°F)
Dewpoint: 21.7°C ( 71°F) [RH = 94%]
Pressure (altimeter):29.89 inches Hg (1012.3 mb)
Winds:from the SSE (150 degrees) at 10 MPH (9 knots; 4.6 m/s)
Visibility: 8 sm ( 13 km)
Ceiling:at least 12,000 feet AGL
Clouds: scattered clouds at 2300 feet AGL
QC Flag:automated observation with no human augmentation

METAR for:KLVJ (Houston/Pearland Rgn, TX, US)
Text:KLVJ 270553Z AUTO 16008KT 8SM FEW016 SCT022 OVC027 23/21 A2990 RMK AO2 SLP123 T02330206 10250 20228 402890200 50002 PWINO $
Temperature: 23.3°C ( 74°F)
Dewpoint: 20.6°C ( 69°F) [RH = 85%]
Pressure (altimeter):29.90 inches Hg (1012.6 mb) [Sea level pressure: 1012.3 mb]
Winds:from the SSE (160 degrees) at 9 MPH (8 knots; 4.1 m/s)
Visibility: 8 sm ( 13 km)
Ceiling:2700 feet AGL
Clouds: few clouds at 1600 feet AGL, scattered clouds at 2200 feet AGL, overcast cloud deck at 2700 feet AGL
QC Flag:automated observation with no human augmentation; SOME DATA ABOVE MAY BE INACCURATE!!!"$" is an indication the sensor requires maintenance.

METAR for:KSGR (Houston/Sugar Land R, TX, US)
Text:KSGR 270553Z AUTO 11003KT 10SM BKN016 OVC027 22/20 A2989 RMK AO2 SLP123 T02220200 10250 20217 403000200 50001
Temperature: 22.2°C ( 72°F)
Dewpoint: 20.0°C ( 68°F) [RH = 87%]
Pressure (altimeter):29.89 inches Hg (1012.3 mb) [Sea level pressure: 1012.3 mb]
Winds:from the ESE (110 degrees) at 3 MPH (3 knots; 1.5 m/s)
Visibility:10 or more sm (16+ km)
Ceiling:1600 feet AGL
Clouds: broken clouds at 1600 feet AGL, overcast cloud deck at 2700 feet AGL
QC Flag:automated observation with no human augmentation

METAR for:KDWH (Houston/Hooks Mem, TX, US)
Text:KDWH 270609Z AUTO 17006KT 10SM SCT026 22/19 A2989 RMK AO2 T02220194
Temperature: 22.2°C ( 72°F)
Dewpoint: 19.4°C ( 67°F) [RH = 84%]
Pressure (altimeter):29.89 inches Hg (1012.3 mb)
Winds:from the S (170 degrees) at 7 MPH (6 knots; 3.1 m/s)
Visibility:10 or more sm (16+ km)
Ceiling:at least 12,000 feet AGL
Clouds: scattered clouds at 2600 feet AGL
QC Flag:automated observation with no human augmentation

METAR for:KCLL (College Station/East, TX, US)
Text:KCLL 270610Z AUTO 15011KT 10SM BKN018 21/19 A2986 RMK AO2 LTG DSNT W-N T02110189
Temperature: 21.1°C ( 70°F)
Dewpoint: 18.9°C ( 66°F) [RH = 87%]
Pressure (altimeter):29.86 inches Hg (1011.3 mb)
Winds:from the SSE (150 degrees) at 13 MPH (11 knots; 5.7 m/s)
Visibility:10 or more sm (16+ km)
Ceiling:1800 feet AGL
Clouds: broken clouds at 1800 feet AGL
QC Flag:automated observation with no human augmentation

METAR for:KUTS (Huntsville Muni, TX, US)
Text:KUTS 270553Z AUTO 17005KT 10SM CLR 21/18 A2989 RMK AO2 SLP116 T02060178 10256 20206 402940117 58002 $
Temperature: 20.6°C ( 69°F)
Dewpoint: 17.8°C ( 64°F) [RH = 84%]
Pressure (altimeter):29.89 inches Hg (1012.3 mb) [Sea level pressure: 1011.6 mb]
Winds:from the S (170 degrees) at 6 MPH (5 knots; 2.6 m/s)
Visibility:10 or more sm (16+ km)
Ceiling:at least 12,000 feet AGL
Clouds:sky clear below 12,000 feet AGL
QC Flag:automated observation with no human augmentation; SOME DATA ABOVE MAY BE INACCURATE!!!"$" is an indication the sensor requires maintenance.

METAR for:KCXO (Conroe/Executive Arp, TX, US)
Text:KCXO 270616Z AUTO 00000KT 10SM BKN024 20/18 A2991 RMK AO2 T02000183
Temperature: 20.0°C ( 68°F)
Dewpoint: 18.3°C ( 65°F) [RH = 90%]
Pressure (altimeter):29.91 inches Hg (1013.0 mb)
Winds:calm
Visibility:10 or more sm (16+ km)
Ceiling:2400 feet AGL
Clouds: broken clouds at 2400 feet AGL
QC Flag:automated observation with no human augmentation

METAR for:KLBX (Angleton/Texas Gulf, TX, US)
Text:KLBX 270553Z AUTO 16010KT 9SM FEW011 SCT015 OVC021 23/21 A2988 RMK AO2 SLP118 T02280211 10239 20222 402830194 50007
Temperature: 22.8°C ( 73°F)
Dewpoint: 21.1°C ( 70°F) [RH = 90%]
Pressure (altimeter):29.88 inches Hg (1011.9 mb) [Sea level pressure: 1011.8 mb]
Winds:from the SSE (160 degrees) at 12 MPH (10 knots; 5.1 m/s)
Visibility: 9 sm ( 14 km)
Ceiling:2100 feet AGL
Clouds: few clouds at 1100 feet AGL, scattered clouds at 1500 feet AGL, overcast cloud deck at 2100 feet AGL
QC Flag:automated observation with no human augmentation

METAR for:KPSX (Palacios Muni, TX, US)
Text:KPSX 270553Z AUTO 15010KT 9SM SCT012 OVC021 22/21 A2986 RMK AO2 SLP109 T02220211 10239 20222 402720211 50009
Temperature: 22.2°C ( 72°F)
Dewpoint: 21.1°C ( 70°F) [RH = 93%]
Pressure (altimeter):29.86 inches Hg (1011.3 mb) [Sea level pressure: 1010.9 mb]
Winds:from the SSE (150 degrees) at 12 MPH (10 knots; 5.1 m/s)
Visibility: 9 sm ( 14 km)
Ceiling:2100 feet AGL
Clouds: scattered clouds at 1200 feet AGL, overcast cloud deck at 2100 feet AGL
QC Flag:automated observation with no human augmentation


Page loaded:  06:32 UTC  |   11:32 PM Pacific  |   12:32 AM Mountain  |   01:32 AM Central  |   02:32 AM Eastern

 

ADVISORIES

FORECASTS

FORECASTS

OBSERVATIONS

USER TOOLS

ABOUT US